Time;durP1;ratioP1;P1;durP2;ratioP2;P2;SDS_P1;SDS_P2;PMS_P1;PMS_P2;Temp;Humidity;BMP_temperature;BMP_pressure;BME280_temperature;BME280_humidity;BME280_pressure;Samples;Min_cycle;Max_cycle;Signal;HPM_P1;HPM_P2
2022/09/26 00:01:19;;;;;;;0.00;0.00;;;9.70;99.90;;;;;;5032897;28;20222;-70
2022/09/26 00:03:49;;;;;;;0.00;0.00;;;9.70;99.90;;;;;;5032684;28;20576;-69
2022/09/26 00:06:19;;;;;;;0.00;0.00;;;9.70;99.90;;;;;;5032972;28;20202;-69
2022/09/26 00:08:48;;;;;;;0.00;0.00;;;9.80;99.90;;;;;;5032732;28;20202;-71
2022/09/26 00:11:23;;;;;;;0.00;0.00;;;9.80;99.90;;;;;;5032769;28;20222;-69
2022/09/26 00:13:52;;;;;;;0.00;0.00;;;9.80;99.90;;;;;;5033069;28;20240;-69
2022/09/26 00:16:20;;;;;;;0.00;0.00;;;9.80;99.90;;;;;;5032780;28;20206;-69
2022/09/26 00:18:49;;;;;;;0.00;0.00;;;9.90;99.90;;;;;;5032730;28;20441;-69
2022/09/26 00:21:19;;;;;;;0.00;0.00;;;9.90;99.90;;;;;;5030548;28;20222;-69
2022/09/26 00:23:47;;;;;;;0.00;0.00;;;9.90;99.90;;;;;;5013004;28;20438;-69
2022/09/26 00:26:17;;;;;;;0.00;0.00;;;10.00;99.90;;;;;;5012929;28;20731;-69
2022/09/26 00:28:45;;;;;;;0.00;0.00;;;10.00;99.90;;;;;;5012788;28;20488;-69
2022/09/26 00:31:14;;;;;;;0.00;0.00;;;10.00;99.90;;;;;;5012908;28;20488;-69
2022/09/26 00:33:42;;;;;;;0.00;0.00;;;10.00;99.90;;;;;;5013246;28;20214;-69
2022/09/26 00:36:10;;;;;;;0.00;0.00;;;9.90;99.90;;;;;;5012934;28;20933;-69
2022/09/26 00:38:39;;;;;;;0.00;0.00;;;9.90;99.90;;;;;;5012748;28;20204;-69
2022/09/26 00:41:08;;;;;;;0.00;0.00;;;9.90;99.90;;;;;;5012685;28;20227;-71
2022/09/26 00:43:39;;;;;;;0.00;0.00;;;9.90;99.90;;;;;;5012786;28;20202;-71
2022/09/26 00:46:20;;;;;;;0.00;0.00;;;9.80;99.90;;;;;;5012636;28;20281;-71
2022/09/26 00:48:52;;;;;;;0.00;0.00;;;9.80;99.90;;;;;;5013027;28;20610;-70
2022/09/26 00:51:20;;;;;;;0.00;0.00;;;9.80;99.90;;;;;;5013245;28;20273;-70
2022/09/26 00:53:54;;;;;;;0.00;0.00;;;9.80;99.90;;;;;;5012912;28;20203;-70
2022/09/26 00:56:29;;;;;;;0.00;0.00;;;9.70;99.90;;;;;;5012878;28;20203;-71
2022/09/26 00:59:02;;;;;;;0.00;0.00;;;9.70;99.90;;;;;;5012538;28;20206;-71
2022/09/26 01:01:30;;;;;;;0.00;0.00;;;9.70;99.90;;;;;;5015623;28;20257;-70
2022/09/26 01:03:59;;;;;;;0.00;0.00;;;9.70;99.90;;;;;;5016282;28;20199;-70
2022/09/26 01:06:26;;;;;;;0.00;0.00;;;9.70;99.90;;;;;;5016254;28;20469;-71
2022/09/26 01:08:58;;;;;;;0.00;0.00;;;9.70;99.90;;;;;;5016137;28;20207;-71
2022/09/26 01:11:26;;;;;;;0.00;0.00;;;9.60;99.90;;;;;;5016785;28;20254;-71
2022/09/26 01:13:54;;;;;;;0.00;0.00;;;9.60;99.90;;;;;;5016225;28;20438;-70
2022/09/26 01:16:22;;;;;;;0.00;0.00;;;9.60;99.90;;;;;;5016091;28;20202;-70
2022/09/26 01:18:50;;;;;;;0.00;0.00;;;9.60;99.90;;;;;;5015794;28;20286;-70
2022/09/26 01:21:53;;;;;;;0.00;0.00;;;9.60;99.90;;;;;;5015608;28;20636;-70
2022/09/26 01:24:47;;;;;;;0.00;0.00;;;9.60;99.90;;;;;;4976851;28;20252;-69
2022/09/26 01:27:43;;;;;;;0.00;0.00;;;9.60;99.90;;;;;;5015673;28;20265;-70
2022/09/26 01:30:15;;;;;;;0.00;0.00;;;9.60;99.90;;;;;;5015926;28;20223;-70
2022/09/26 01:33:22;;;;;;;0.00;0.00;;;9.60;99.90;;;;;;5015828;28;20219;-69
2022/09/26 01:36:13;;;;;;;0.00;0.00;;;9.60;99.90;;;;;;5015906;28;20203;-70
2022/09/26 01:38:52;;;;;;;0.00;0.00;;;9.60;99.90;;;;;;5015652;28;20203;-69
2022/09/26 01:41:31;;;;;;;0.00;0.00;;;9.60;99.90;;;;;;5015600;28;20656;-69
2022/09/26 01:44:09;;;;;;;0.00;0.00;;;9.70;99.90;;;;;;5015535;28;20251;-71
2022/09/26 01:46:46;;;;;;;0.00;0.00;;;9.70;99.90;;;;;;5015629;28;20226;-69
2022/09/26 01:49:19;;;;;;;0.00;0.00;;;9.70;99.90;;;;;;5015444;28;20199;-70
2022/09/26 01:51:51;;;;;;;0.00;0.00;;;9.70;99.90;;;;;;5015481;28;20203;-70
2022/09/26 01:54:24;;;;;;;0.00;0.00;;;9.70;99.90;;;;;;5015249;28;20199;-71
2022/09/26 01:56:57;;;;;;;0.00;0.00;;;9.80;99.90;;;;;;5015466;28;20202;-70
2022/09/26 01:59:30;;;;;;;0.00;0.00;;;9.80;99.90;;;;;;5015387;28;20454;-69
2022/09/26 02:02:06;;;;;;;0.00;0.00;;;9.80;99.90;;;;;;5015244;28;20628;-70
2022/09/26 02:04:39;;;;;;;0.00;0.00;;;9.80;99.90;;;;;;5015129;28;20425;-69
2022/09/26 02:07:12;;;;;;;0.00;0.00;;;9.80;99.90;;;;;;5015044;28;20210;-68
2022/09/26 02:09:44;;;;;;;0.00;0.00;;;9.70;99.90;;;;;;5014992;28;20466;-68
2022/09/26 02:12:18;;;;;;;0.00;0.00;;;9.70;99.90;;;;;;5014330;28;20670;-70
2022/09/26 02:20:18;;;;;;;0.00;0.00;;;9.70;99.90;;;;;;5111856;22;20700;-88
2022/09/26 02:22:46;;;;;;;0.00;0.00;;;9.70;99.90;;;;;;5042210;28;20217;-91
2022/09/26 02:25:14;;;;;;;0.00;0.00;;;9.70;99.90;;;;;;5041722;28;20636;-91
2022/09/26 02:27:42;;;;;;;0.00;0.00;;;9.70;99.90;;;;;;5042190;28;20610;-91
2022/09/26 02:30:11;;;;;;;0.00;0.00;;;9.70;99.90;;;;;;5042203;28;20457;-91
2022/09/26 02:32:39;;;;;;;0.00;0.00;;;9.70;99.90;;;;;;5043339;28;20613;-90
2022/09/26 02:35:53;;;;;;;0.00;0.00;;;9.70;99.90;;;;;;5043385;28;20210;-91
2022/09/26 02:38:05;;;;;;;0.00;0.00;;;9.70;99.90;;;;;;5043650;28;20206;-91
2022/09/26 02:40:39;;;;;;;0.00;0.00;;;9.70;99.90;;;;;;5042534;28;20746;-91
2022/09/26 02:43:26;;;;;;;0.00;0.00;;;9.80;99.90;;;;;;5047441;28;20202;-90
2022/09/26 02:46:06;;;;;;;0.00;0.00;;;9.80;99.90;;;;;;5047290;28;21007;-91
2022/09/26 02:48:51;;;;;;;0.00;0.00;;;9.80;99.90;;;;;;5042494;28;20248;-91
2022/09/26 02:51:37;;;;;;;0.00;0.00;;;9.90;99.90;;;;;;5043134;28;20519;-90
2022/09/26 02:54:20;;;;;;;0.00;0.00;;;9.90;99.90;;;;;;5043417;28;20233;-91
2022/09/26 02:57:03;;;;;;;0.00;0.00;;;9.90;99.90;;;;;;5042042;28;20437;-90
2022/09/26 02:59:37;;;;;;;0.00;0.00;;;10.00;99.90;;;;;;5041920;28;20962;-90
2022/09/26 03:02:14;;;;;;;0.00;0.00;;;10.00;99.90;;;;;;5042527;28;20931;-90
2022/09/26 03:04:46;;;;;;;0.00;0.00;;;10.10;99.90;;;;;;5042866;28;20206;-91
2022/09/26 03:07:20;;;;;;;0.00;0.00;;;10.10;99.90;;;;;;5041824;28;20481;-91
2022/09/26 03:09:52;;;;;;;0.00;0.00;;;10.10;99.90;;;;;;5041779;28;20499;-90
2022/09/26 03:12:22;;;;;;;0.00;0.00;;;10.20;99.90;;;;;;5040517;28;20441;-90
2022/09/26 03:14:53;;;;;;;0.00;0.00;;;10.20;99.90;;;;;;5041300;28;20473;-90
2022/09/26 03:17:27;;;;;;;0.00;0.00;;;10.30;99.90;;;;;;5042140;28;20505;-91
2022/09/26 03:19:59;;;;;;;0.00;0.00;;;10.30;99.90;;;;;;5041131;28;20461;-91
2022/09/26 03:22:27;;;;;;;0.00;0.00;;;10.40;99.90;;;;;;5041470;28;20461;-90
2022/09/26 03:24:58;;;;;;;0.00;0.00;;;10.40;99.90;;;;;;5037338;28;20450;-89
2022/09/26 03:27:26;;;;;;;0.00;0.00;;;10.50;99.90;;;;;;5036530;28;20483;-90
2022/09/26 03:29:54;;;;;;;0.00;0.00;;;10.50;99.90;;;;;;5036197;28;20461;-91
2022/09/26 03:32:21;;;;;;;0.00;0.00;;;10.60;99.90;;;;;;5042874;28;20868;-90
2022/09/26 03:34:50;;;;;;;0.00;0.00;;;10.60;99.90;;;;;;5042830;28;20445;-92
2022/09/26 03:37:18;;;;;;;0.00;0.00;;;10.60;99.90;;;;;;5042684;28;20444;-90
2022/09/26 03:39:46;;;;;;;0.00;0.00;;;10.70;99.90;;;;;;5044644;28;20504;-90
2022/09/26 03:42:15;;;;;;;0.00;0.00;;;10.70;99.90;;;;;;5043405;28;20449;-91
2022/09/26 03:44:43;;;;;;;0.00;0.00;;;10.70;99.90;;;;;;5042946;28;20443;-92
2022/09/26 03:47:11;;;;;;;0.00;0.00;;;10.60;99.90;;;;;;5054805;28;20229;-91
2022/09/26 03:49:39;;;;;;;0.00;0.00;;;10.70;99.90;;;;;;5044712;28;20480;-91
2022/09/26 03:52:10;;;;;;;0.00;0.00;;;10.70;99.90;;;;;;5042262;28;20475;-91
2022/09/26 03:54:38;;;;;;;0.00;0.00;;;10.80;99.90;;;;;;5043809;28;20453;-92
2022/09/26 03:57:06;;;;;;;0.00;0.00;;;10.80;99.90;;;;;;5043950;28;20838;-92
2022/09/26 03:59:35;;;;;;;0.00;0.00;;;10.90;99.90;;;;;;5046262;28;21022;-91
2022/09/26 04:02:03;;;;;;;0.00;0.00;;;10.90;99.90;;;;;;5050968;28;20499;-91
2022/09/26 04:04:32;;;;;;;0.00;0.00;;;10.90;99.90;;;;;;5049529;28;20433;-90
2022/09/26 04:07:00;;;;;;;0.00;0.00;;;10.90;99.90;;;;;;5049342;28;20457;-90
2022/09/26 04:09:31;;;;;;;0.00;0.00;;;10.80;99.90;;;;;;5052620;28;20472;-92
2022/09/26 04:11:59;;;;;;;0.00;0.00;;;10.80;99.90;;;;;;5053314;28;20449;-91
2022/09/26 04:14:27;;;;;;;0.00;0.00;;;10.80;99.90;;;;;;5044949;28;20442;-92
2022/09/26 04:16:59;;;;;;;0.00;0.00;;;10.70;99.90;;;;;;5045068;28;20452;-91
2022/09/26 04:19:27;;;;;;;0.00;0.00;;;10.70;99.90;;;;;;5044967;28;20433;-91
2022/09/26 04:21:55;;;;;;;0.00;0.00;;;10.70;99.90;;;;;;5047244;28;20464;-91
2022/09/26 04:24:23;;;;;;;0.00;0.00;;;10.60;99.90;;;;;;5046559;28;20437;-91
2022/09/26 04:26:50;;;;;;;0.00;0.00;;;10.70;99.90;;;;;;5044458;28;20493;-91
2022/09/26 04:29:18;;;;;;;0.00;0.00;;;10.60;99.90;;;;;;5045043;28;20445;-91
2022/09/26 04:31:46;;;;;;;0.00;0.00;;;10.70;99.90;;;;;;5045101;28;20453;-91
2022/09/26 04:34:19;;;;;;;0.00;0.00;;;10.70;99.90;;;;;;5051634;28;20457;-91
2022/09/26 04:36:54;;;;;;;0.00;0.00;;;10.70;99.90;;;;;;5060898;28;20473;-90
2022/09/26 04:39:22;;;;;;;0.00;0.00;;;10.70;99.90;;;;;;5061026;28;20425;-89
2022/09/26 04:41:51;;;;;;;0.00;0.00;;;10.80;99.90;;;;;;5052517;28;20452;-90
2022/09/26 04:44:19;;;;;;;0.00;0.00;;;10.80;99.90;;;;;;5046188;28;20429;-91
2022/09/26 04:46:46;;;;;;;0.00;0.00;;;10.80;99.90;;;;;;5054282;28;20523;-91
2022/09/26 04:49:16;;;;;;;0.00;0.00;;;10.80;99.90;;;;;;5058460;28;20437;-92
2022/09/26 04:51:44;;;;;;;0.00;0.00;;;10.80;99.90;;;;;;5050682;28;20506;-91
2022/09/26 04:54:12;;;;;;;0.00;0.00;;;10.80;99.90;;;;;;5045967;28;20959;-90
2022/09/26 04:56:39;;;;;;;0.00;0.00;;;10.90;99.90;;;;;;5045519;28;20936;-91
2022/09/26 04:59:07;;;;;;;0.00;0.00;;;10.90;99.90;;;;;;5045271;28;20804;-91
2022/09/26 05:01:35;;;;;;;0.00;0.00;;;10.90;99.90;;;;;;5045922;28;20464;-91
2022/09/26 05:04:03;;;;;;;0.00;0.00;;;10.90;99.90;;;;;;5045625;28;20459;-90
2022/09/26 05:06:32;;;;;;;0.00;0.00;;;10.90;99.90;;;;;;5044291;28;20509;-89
2022/09/26 05:09:01;;;;;;;0.00;0.00;;;10.80;99.90;;;;;;5045659;28;20464;-90
2022/09/26 05:11:31;;;;;;;0.00;0.00;;;10.80;99.90;;;;;;5046473;28;20476;-90
2022/09/26 05:14:01;;;;;;;0.00;0.00;;;10.80;99.90;;;;;;5044899;28;20457;-89
2022/09/26 05:16:29;;;;;;;0.00;0.00;;;10.80;99.90;;;;;;5044354;28;20452;-89
2022/09/26 05:18:57;;;;;;;0.00;0.00;;;10.70;99.90;;;;;;5043394;28;20441;-90
2022/09/26 05:21:25;;;;;;;0.00;0.00;;;10.70;99.90;;;;;;5043126;28;20230;-90
2022/09/26 05:26:43;;;;;;;0.00;0.00;;;10.70;99.90;;;;;;5043599;28;20813;-91
2022/09/26 05:29:11;;;;;;;0.00;0.00;;;10.80;99.90;;;;;;5044730;28;20480;-90
2022/09/26 05:31:39;;;;;;;0.00;0.00;;;10.70;99.90;;;;;;5047944;28;20503;-90
2022/09/26 05:34:10;;;;;;;0.00;0.00;;;10.70;99.90;;;;;;5044331;28;20878;-90
2022/09/26 05:36:45;;;;;;;0.00;0.00;;;10.70;99.90;;;;;;5042059;28;20433;-91
2022/09/26 05:41:58;;;;;;;0.00;0.00;;;10.90;99.90;;;;;;4992504;28;20456;-92
2022/09/26 05:44:26;;;;;;;0.00;0.00;;;11.10;99.90;;;;;;5045230;28;20885;-91
2022/09/26 05:46:56;;;;;;;0.00;0.00;;;11.10;99.90;;;;;;5039462;28;20826;-91
2022/09/26 05:49:24;;;;;;;0.00;0.00;;;11.10;99.90;;;;;;5042700;28;20487;-91
2022/09/26 05:51:52;;;;;;;0.00;0.00;;;11.10;99.90;;;;;;5050824;28;20456;-90
2022/09/26 05:54:22;;;;;;;0.00;0.00;;;11.10;99.90;;;;;;5053880;28;20525;-91
2022/09/26 05:56:50;;;;;;;0.00;0.00;;;11.10;99.90;;;;;;5042457;28;20802;-91
2022/09/26 05:59:18;;;;;;;0.00;0.00;;;11.10;99.90;;;;;;5036484;28;20508;-89
2022/09/26 06:01:46;;;;;;;0.00;0.00;;;11.10;99.90;;;;;;5033148;28;20461;-91
2022/09/26 06:04:14;;;;;;;0.00;0.00;;;11.10;99.90;;;;;;5043967;28;20457;-90
2022/09/26 06:06:43;;;;;;;0.00;0.00;;;11.10;99.90;;;;;;5043929;28;20445;-91
2022/09/26 06:09:11;;;;;;;0.00;0.00;;;11.10;99.90;;;;;;5055913;28;20445;-91
2022/09/26 06:11:42;;;;;;;0.00;0.00;;;11.20;99.90;;;;;;5043743;28;20943;-91
2022/09/26 06:14:10;;;;;;;0.00;0.00;;;11.30;99.90;;;;;;5046464;28;20424;-91
2022/09/26 06:16:41;;;;;;;0.00;0.00;;;11.30;99.90;;;;;;5043676;28;20479;-91
2022/09/26 06:19:09;;;;;;;0.00;0.00;;;11.30;99.90;;;;;;5043487;28;20926;-90
2022/09/26 06:21:38;;;;;;;0.00;0.00;;;11.40;99.90;;;;;;5042999;28;20476;-91
2022/09/26 06:24:07;;;;;;;0.00;0.00;;;11.40;99.90;;;;;;5043692;28;20445;-92
2022/09/26 06:26:36;;;;;;;0.00;0.00;;;11.50;99.90;;;;;;5044223;28;20442;-91
2022/09/26 06:29:06;;;;;;;0.00;0.00;;;11.60;99.90;;;;;;5047146;28;20477;-92
2022/09/26 06:31:34;;;;;;;0.00;0.00;;;11.60;99.90;;;;;;5044158;28;20476;-92
2022/09/26 06:34:02;;;;;;;0.00;0.00;;;11.70;99.90;;;;;;5044778;28;20455;-91
2022/09/26 06:36:30;;;;;;;0.00;0.00;;;11.70;99.90;;;;;;5042355;28;20450;-91
2022/09/26 06:38:58;;;;;;;0.00;0.00;;;11.80;99.90;;;;;;5043497;28;20456;-91
2022/09/26 06:41:26;;;;;;;0.00;0.00;;;11.80;99.90;;;;;;5042523;28;20480;-91
2022/09/26 06:43:54;;;;;;;0.00;0.00;;;11.80;99.90;;;;;;5043896;28;20829;-90
2022/09/26 06:46:23;;;;;;;0.00;0.00;;;11.90;99.90;;;;;;5042252;28;20449;-91
2022/09/26 06:48:51;;;;;;;0.00;0.00;;;12.00;99.90;;;;;;5042586;28;20484;-91
2022/09/26 06:51:19;;;;;;;0.00;0.00;;;12.10;99.90;;;;;;5043340;28;20463;-91
2022/09/26 06:53:47;;;;;;;0.00;0.00;;;12.20;99.90;;;;;;5043125;28;20449;-91
2022/09/26 06:56:15;;;;;;;0.00;0.00;;;12.30;99.90;;;;;;5055325;28;20928;-92
2022/09/26 06:58:44;;;;;;;0.00;0.00;;;12.40;99.90;;;;;;5046015;28;20433;-91
2022/09/26 07:01:13;;;;;;;0.00;0.00;;;12.50;99.90;;;;;;5047685;28;20465;-92
2022/09/26 07:03:42;;;;;;;0.00;0.00;;;12.50;99.90;;;;;;5043641;28;20548;-92
2022/09/26 07:06:13;;;;;;;0.00;0.00;;;12.60;99.90;;;;;;5041946;28;20464;-91
2022/09/26 07:08:45;;;;;;;0.00;0.00;;;12.60;99.90;;;;;;5041264;28;20912;-91
2022/09/26 07:11:35;;;;;;;0.00;0.00;;;12.60;99.90;;;;;;5041751;28;20493;-91
2022/09/26 07:14:24;;;;;;;0.00;0.00;;;12.60;99.90;;;;;;5042170;28;20912;-92
2022/09/26 07:16:52;;;;;;;0.00;0.00;;;12.60;99.90;;;;;;5043406;28;20477;-92
2022/09/26 07:19:25;;;;;;;0.00;0.00;;;12.70;99.90;;;;;;5048810;28;20449;-92
2022/09/26 07:21:55;;;;;;;0.00;0.00;;;12.80;99.90;;;;;;5046726;28;20460;-92
2022/09/26 07:24:26;;;;;;;0.00;0.00;;;12.80;99.90;;;;;;5053974;28;20433;-92
2022/09/26 07:26:54;;;;;;;0.00;0.00;;;12.90;99.90;;;;;;5053268;28;20587;-93
2022/09/26 07:29:22;;;;;;;0.00;0.00;;;13.00;99.90;;;;;;5048340;28;20499;-93
2022/09/26 07:31:50;;;;;;;0.00;0.00;;;13.10;99.90;;;;;;5043748;28;20481;-91
2022/09/26 07:34:18;;;;;;;0.00;0.00;;;13.20;99.90;;;;;;5044161;28;20460;-92
2022/09/26 07:36:47;;;;;;;0.00;0.00;;;13.30;99.90;;;;;;5045466;28;20452;-90
2022/09/26 07:39:18;;;;;;;0.00;0.00;;;13.30;99.90;;;;;;5044767;28;20520;-92
2022/09/26 07:41:48;;;;;;;0.00;0.00;;;13.30;99.90;;;;;;5048353;28;20444;-91
2022/09/26 07:44:16;;;;;;;0.00;0.00;;;13.40;99.90;;;;;;5045696;28;20772;-91
2022/09/26 07:52:52;;;;;;;0.00;0.00;;;13.30;99.90;;;;;;5055752;28;20861;-92
2022/09/26 07:56:04;;;;;;;0.00;0.00;;;13.30;99.90;;;;;;5057206;28;20453;-92
